sensor_id;sensor_type;location;lat;lon;timestamp;temperature;humidity
37754;DHT22;23596;52.520;13.464;2023-03-30T00:02:18;9.80;99.90
37754;DHT22;23596;52.520;13.464;2023-03-30T00:04:48;9.90;99.90
37754;DHT22;23596;52.520;13.464;2023-03-30T00:07:14;9.80;99.90
37754;DHT22;23596;52.520;13.464;2023-03-30T00:09:39;9.80;99.90
37754;DHT22;23596;52.520;13.464;2023-03-30T00:12:09;9.80;99.90
37754;DHT22;23596;52.520;13.464;2023-03-30T00:14:34;9.80;99.90
37754;DHT22;23596;52.520;13.464;2023-03-30T00:17:08;9.80;99.90
37754;DHT22;23596;52.520;13.464;2023-03-30T00:19:34;9.80;99.90
37754;DHT22;23596;52.520;13.464;2023-03-30T00:22:08;9.80;99.90
37754;DHT22;23596;52.520;13.464;2023-03-30T00:24:34;9.80;99.90
37754;DHT22;23596;52.520;13.464;2023-03-30T00:27:01;9.80;99.90
37754;DHT22;23596;52.520;13.464;2023-03-30T00:29:27;9.80;99.90
37754;DHT22;23596;52.520;13.464;2023-03-30T00:31:52;9.80;99.90
37754;DHT22;23596;52.520;13.464;2023-03-30T00:34:18;9.90;99.90
37754;DHT22;23596;52.520;13.464;2023-03-30T00:36:44;9.90;99.90
37754;DHT22;23596;52.520;13.464;2023-03-30T00:39:11;9.80;99.90
37754;DHT22;23596;52.520;13.464;2023-03-30T00:41:38;9.80;99.90
37754;DHT22;23596;52.520;13.464;2023-03-30T00:47:11;9.80;99.90
37754;DHT22;23596;52.520;13.464;2023-03-30T00:49:37;9.80;99.90
37754;DHT22;23596;52.520;13.464;2023-03-30T00:52:03;9.80;99.90
37754;DHT22;23596;52.520;13.464;2023-03-30T00:54:29;9.80;99.90
37754;DHT22;23596;52.520;13.464;2023-03-30T00:56:55;9.80;99.90
37754;DHT22;23596;52.520;13.464;2023-03-30T00:59:21;9.70;99.90
37754;DHT22;23596;52.520;13.464;2023-03-30T01:01:47;9.80;99.90
37754;DHT22;23596;52.520;13.464;2023-03-30T01:04:15;9.70;99.90
37754;DHT22;23596;52.520;13.464;2023-03-30T01:06:43;9.70;99.90
37754;DHT22;23596;52.520;13.464;2023-03-30T01:09:11;9.70;99.90
37754;DHT22;23596;52.520;13.464;2023-03-30T01:11:38;9.70;99.90
37754;DHT22;23596;52.520;13.464;2023-03-30T01:14:05;9.70;99.90
37754;DHT22;23596;52.520;13.464;2023-03-30T01:41:55;9.60;99.90
37754;DHT22;23596;52.520;13.464;2023-03-30T01:44:42;9.60;99.90
37754;DHT22;23596;52.520;13.464;2023-03-30T01:47:37;9.60;99.90
37754;DHT22;23596;52.520;13.464;2023-03-30T01:50:14;9.60;99.90
37754;DHT22;23596;52.520;13.464;2023-03-30T01:58:30;9.50;99.90
37754;DHT22;23596;52.520;13.464;2023-03-30T02:01:01;9.60;99.90
37754;DHT22;23596;52.520;13.464;2023-03-30T02:03:30;9.60;99.90
37754;DHT22;23596;52.520;13.464;2023-03-30T02:06:06;9.60;99.90
37754;DHT22;23596;52.520;13.464;2023-03-30T02:08:34;9.60;99.90
37754;DHT22;23596;52.520;13.464;2023-03-30T02:11:01;9.60;99.90
37754;DHT22;23596;52.520;13.464;2023-03-30T02:13:29;9.60;99.90
37754;DHT22;23596;52.520;13.464;2023-03-30T02:15:59;9.60;99.90
37754;DHT22;23596;52.520;13.464;2023-03-30T02:18:26;9.60;99.90
37754;DHT22;23596;52.520;13.464;2023-03-30T02:20:52;9.60;99.90
37754;DHT22;23596;52.520;13.464;2023-03-30T02:23:22;9.60;99.90
37754;DHT22;23596;52.520;13.464;2023-03-30T02:25:49;9.60;99.90
37754;DHT22;23596;52.520;13.464;2023-03-30T02:28:14;9.50;99.90
37754;DHT22;23596;52.520;13.464;2023-03-30T02:30:43;9.60;99.90
37754;DHT22;23596;52.520;13.464;2023-03-30T02:33:22;9.60;99.90
37754;DHT22;23596;52.520;13.464;2023-03-30T02:47:20;9.50;99.90
37754;DHT22;23596;52.520;13.464;2023-03-30T02:52:56;9.50;99.90
37754;DHT22;23596;52.520;13.464;2023-03-30T02:55:33;9.50;99.90
37754;DHT22;23596;52.520;13.464;2023-03-30T02:58:23;9.50;99.90
37754;DHT22;23596;52.520;13.464;2023-03-30T03:00:52;9.50;99.90
37754;DHT22;23596;52.520;13.464;2023-03-30T03:03:31;9.50;99.90
37754;DHT22;23596;52.520;13.464;2023-03-30T03:05:59;9.50;99.90
37754;DHT22;23596;52.520;13.464;2023-03-30T03:08:31;9.50;99.90
37754;DHT22;23596;52.520;13.464;2023-03-30T03:10:58;9.50;99.90
37754;DHT22;23596;52.520;13.464;2023-03-30T03:13:24;9.50;99.90
37754;DHT22;23596;52.520;13.464;2023-03-30T03:15:52;9.50;99.90
37754;DHT22;23596;52.520;13.464;2023-03-30T03:18:20;9.50;99.90
37754;DHT22;23596;52.520;13.464;2023-03-30T03:20:46;9.50;99.90
37754;DHT22;23596;52.520;13.464;2023-03-30T03:23:12;9.50;99.90
37754;DHT22;23596;52.520;13.464;2023-03-30T03:25:38;9.50;99.90
37754;DHT22;23596;52.520;13.464;2023-03-30T03:28:04;9.50;99.90
37754;DHT22;23596;52.520;13.464;2023-03-30T03:30:29;9.50;99.90
37754;DHT22;23596;52.520;13.464;2023-03-30T03:32:55;9.60;99.90
37754;DHT22;23596;52.520;13.464;2023-03-30T03:35:21;9.60;99.90
37754;DHT22;23596;52.520;13.464;2023-03-30T03:37:47;9.60;99.90
37754;DHT22;23596;52.520;13.464;2023-03-30T03:40:12;9.60;99.90
37754;DHT22;23596;52.520;13.464;2023-03-30T03:42:39;9.50;99.90
37754;DHT22;23596;52.520;13.464;2023-03-30T03:45:05;9.50;99.90
37754;DHT22;23596;52.520;13.464;2023-03-30T03:47:32;9.50;99.90
37754;DHT22;23596;52.520;13.464;2023-03-30T03:49:58;9.50;99.90
37754;DHT22;23596;52.520;13.464;2023-03-30T03:52:25;9.50;99.90
37754;DHT22;23596;52.520;13.464;2023-03-30T03:54:50;9.60;99.90
37754;DHT22;23596;52.520;13.464;2023-03-30T03:57:16;9.50;99.90
37754;DHT22;23596;52.520;13.464;2023-03-30T03:59:42;9.50;99.90
37754;DHT22;23596;52.520;13.464;2023-03-30T04:02:07;9.50;99.90
37754;DHT22;23596;52.520;13.464;2023-03-30T04:04:33;9.50;99.90
37754;DHT22;23596;52.520;13.464;2023-03-30T04:06:58;9.50;99.90
37754;DHT22;23596;52.520;13.464;2023-03-30T04:09:25;9.50;99.90
37754;DHT22;23596;52.520;13.464;2023-03-30T04:11:51;9.50;99.90
37754;DHT22;23596;52.520;13.464;2023-03-30T04:14:16;9.50;99.90
37754;DHT22;23596;52.520;13.464;2023-03-30T04:16:42;9.50;99.90
37754;DHT22;23596;52.520;13.464;2023-03-30T04:19:08;9.50;99.90
37754;DHT22;23596;52.520;13.464;2023-03-30T04:21:37;9.50;99.90
37754;DHT22;23596;52.520;13.464;2023-03-30T04:24:06;9.50;99.90
37754;DHT22;23596;52.520;13.464;2023-03-30T04:26:31;9.40;99.90
37754;DHT22;23596;52.520;13.464;2023-03-30T04:28:57;9.50;99.90
37754;DHT22;23596;52.520;13.464;2023-03-30T04:31:24;9.60;99.90
37754;DHT22;23596;52.520;13.464;2023-03-30T04:33:50;9.60;99.90
37754;DHT22;23596;52.520;13.464;2023-03-30T04:36:17;9.60;99.90
37754;DHT22;23596;52.520;13.464;2023-03-30T04:38:47;9.50;99.90
37754;DHT22;23596;52.520;13.464;2023-03-30T04:41:29;9.70;99.90
37754;DHT22;23596;52.520;13.464;2023-03-30T04:44:03;9.50;99.90
37754;DHT22;23596;52.520;13.464;2023-03-30T04:46:29;9.50;99.90
37754;DHT22;23596;52.520;13.464;2023-03-30T04:48:55;9.50;99.90
37754;DHT22;23596;52.520;13.464;2023-03-30T04:51:21;9.50;99.90
37754;DHT22;23596;52.520;13.464;2023-03-30T04:53:47;9.60;99.90
37754;DHT22;23596;52.520;13.464;2023-03-30T04:56:12;9.60;99.90
37754;DHT22;23596;52.520;13.464;2023-03-30T04:58:38;9.50;99.90
37754;DHT22;23596;52.520;13.464;2023-03-30T05:01:04;9.50;99.90
37754;DHT22;23596;52.520;13.464;2023-03-30T05:03:29;9.50;99.90
37754;DHT22;23596;52.520;13.464;2023-03-30T05:05:55;9.60;99.90
37754;DHT22;23596;52.520;13.464;2023-03-30T05:08:22;9.60;99.90
37754;DHT22;23596;52.520;13.464;2023-03-30T05:10:47;9.60;99.90
37754;DHT22;23596;52.520;13.464;2023-03-30T05:13:13;9.70;99.90
37754;DHT22;23596;52.520;13.464;2023-03-30T05:15:39;9.60;99.90
37754;DHT22;23596;52.520;13.464;2023-03-30T05:18:04;9.60;99.90
37754;DHT22;23596;52.520;13.464;2023-03-30T05:20:30;9.60;99.90
37754;DHT22;23596;52.520;13.464;2023-03-30T05:22:56;9.60;99.90
37754;DHT22;23596;52.520;13.464;2023-03-30T05:25:22;9.60;99.90
37754;DHT22;23596;52.520;13.464;2023-03-30T05:27:48;9.70;99.90
37754;DHT22;23596;52.520;13.464;2023-03-30T05:30:14;9.60;99.90
37754;DHT22;23596;52.520;13.464;2023-03-30T05:32:39;9.60;99.90
37754;DHT22;23596;52.520;13.464;2023-03-30T05:35:06;9.70;99.90
37754;DHT22;23596;52.520;13.464;2023-03-30T05:37:32;9.60;99.90
37754;DHT22;23596;52.520;13.464;2023-03-30T05:39:57;9.60;99.90
37754;DHT22;23596;52.520;13.464;2023-03-30T05:42:23;9.70;99.90
37754;DHT22;23596;52.520;13.464;2023-03-30T05:44:49;9.70;99.90
37754;DHT22;23596;52.520;13.464;2023-03-30T05:47:14;9.70;99.90
37754;DHT22;23596;52.520;13.464;2023-03-30T05:49:41;9.80;99.90
37754;DHT22;23596;52.520;13.464;2023-03-30T05:52:06;9.80;99.90
37754;DHT22;23596;52.520;13.464;2023-03-30T05:54:32;9.80;99.90
37754;DHT22;23596;52.520;13.464;2023-03-30T05:56:58;9.70;99.90
37754;DHT22;23596;52.520;13.464;2023-03-30T05:59:23;9.80;99.90
37754;DHT22;23596;52.520;13.464;2023-03-30T06:01:50;9.70;99.90
37754;DHT22;23596;52.520;13.464;2023-03-30T06:04:15;9.80;99.90
37754;DHT22;23596;52.520;13.464;2023-03-30T06:06:41;9.70;99.90
37754;DHT22;23596;52.520;13.464;2023-03-30T06:09:07;9.80;99.90
37754;DHT22;23596;52.520;13.464;2023-03-30T06:11:33;9.80;99.90
37754;DHT22;23596;52.520;13.464;2023-03-30T06:13:59;9.80;99.90
37754;DHT22;23596;52.520;13.464;2023-03-30T06:16:25;9.80;99.90
37754;DHT22;23596;52.520;13.464;2023-03-30T06:18:50;9.80;99.90
37754;DHT22;23596;52.520;13.464;2023-03-30T06:21:16;9.90;99.90
37754;DHT22;23596;52.520;13.464;2023-03-30T06:23:42;9.90;99.90
37754;DHT22;23596;52.520;13.464;2023-03-30T06:26:08;10.00;99.90
37754;DHT22;23596;52.520;13.464;2023-03-30T06:28:34;10.00;99.90
37754;DHT22;23596;52.520;13.464;2023-03-30T06:31:00;10.00;99.90
37754;DHT22;23596;52.520;13.464;2023-03-30T06:33:27;10.00;99.90
37754;DHT22;23596;52.520;13.464;2023-03-30T06:35:52;10.10;99.90
37754;DHT22;23596;52.520;13.464;2023-03-30T06:38:22;10.10;99.90
37754;DHT22;23596;52.520;13.464;2023-03-30T06:40:48;10.10;99.90
37754;DHT22;23596;52.520;13.464;2023-03-30T06:43:22;10.10;99.90
37754;DHT22;23596;52.520;13.464;2023-03-30T06:45:55;10.20;99.90
37754;DHT22;23596;52.520;13.464;2023-03-30T06:48:22;10.30;99.90
37754;DHT22;23596;52.520;13.464;2023-03-30T06:50:52;10.30;99.90
37754;DHT22;23596;52.520;13.464;2023-03-30T06:53:19;10.30;99.90
37754;DHT22;23596;52.520;13.464;2023-03-30T06:55:50;10.30;99.90
37754;DHT22;23596;52.520;13.464;2023-03-30T06:58:20;10.30;99.90
37754;DHT22;23596;52.520;13.464;2023-03-30T07:00:46;10.30;99.90
37754;DHT22;23596;52.520;13.464;2023-03-30T07:03:11;10.30;99.90
37754;DHT22;23596;52.520;13.464;2023-03-30T07:05:37;10.30;99.90
37754;DHT22;23596;52.520;13.464;2023-03-30T07:08:03;10.40;99.90
37754;DHT22;23596;52.520;13.464;2023-03-30T07:10:30;10.30;99.90
37754;DHT22;23596;52.520;13.464;2023-03-30T07:12:56;10.40;99.90
37754;DHT22;23596;52.520;13.464;2023-03-30T07:15:22;10.30;99.90
37754;DHT22;23596;52.520;13.464;2023-03-30T07:17:49;10.30;99.90
37754;DHT22;23596;52.520;13.464;2023-03-30T07:20:14;10.30;99.90
37754;DHT22;23596;52.520;13.464;2023-03-30T07:22:40;10.30;99.90
37754;DHT22;23596;52.520;13.464;2023-03-30T07:25:07;10.30;99.90
37754;DHT22;23596;52.520;13.464;2023-03-30T07:27:34;10.30;99.90
37754;DHT22;23596;52.520;13.464;2023-03-30T07:30:01;10.20;99.90
37754;DHT22;23596;52.520;13.464;2023-03-30T07:32:26;10.30;99.90
37754;DHT22;23596;52.520;13.464;2023-03-30T07:34:52;10.40;99.90
37754;DHT22;23596;52.520;13.464;2023-03-30T07:37:18;10.40;99.90
37754;DHT22;23596;52.520;13.464;2023-03-30T07:39:44;10.60;99.90
37754;DHT22;23596;52.520;13.464;2023-03-30T07:42:10;10.60;99.90
37754;DHT22;23596;52.520;13.464;2023-03-30T07:44:35;10.60;99.90
37754;DHT22;23596;52.520;13.464;2023-03-30T07:47:01;10.70;99.90
37754;DHT22;23596;52.520;13.464;2023-03-30T07:49:31;10.80;99.90
37754;DHT22;23596;52.520;13.464;2023-03-30T07:51:56;10.90;99.90
37754;DHT22;23596;52.520;13.464;2023-03-30T07:54:22;11.00;99.90
37754;DHT22;23596;52.520;13.464;2023-03-30T07:56:48;11.00;99.90
37754;DHT22;23596;52.520;13.464;2023-03-30T07:59:18;11.10;99.90
37754;DHT22;23596;52.520;13.464;2023-03-30T08:01:44;11.10;99.90
37754;DHT22;23596;52.520;13.464;2023-03-30T08:04:11;11.20;99.90
37754;DHT22;23596;52.520;13.464;2023-03-30T08:06:37;11.20;99.90
37754;DHT22;23596;52.520;13.464;2023-03-30T08:09:03;11.30;99.90
37754;DHT22;23596;52.520;13.464;2023-03-30T08:11:29;11.40;99.90
37754;DHT22;23596;52.520;13.464;2023-03-30T08:13:56;11.40;99.90
37754;DHT22;23596;52.520;13.464;2023-03-30T08:16:21;11.40;99.90
37754;DHT22;23596;52.520;13.464;2023-03-30T08:18:47;11.50;99.90
37754;DHT22;23596;52.520;13.464;2023-03-30T08:21:13;11.60;99.90
37754;DHT22;23596;52.520;13.464;2023-03-30T08:23:38;11.60;99.90
37754;DHT22;23596;52.520;13.464;2023-03-30T08:26:04;11.60;99.90
37754;DHT22;23596;52.520;13.464;2023-03-30T08:28:30;11.70;99.90
37754;DHT22;23596;52.520;13.464;2023-03-30T08:31:02;11.80;99.90
37754;DHT22;23596;52.520;13.464;2023-03-30T08:33:28;11.90;99.90
37754;DHT22;23596;52.520;13.464;2023-03-30T08:35:54;12.00;99.90
37754;DHT22;23596;52.520;13.464;2023-03-30T08:38:20;12.10;99.90
37754;DHT22;23596;52.520;13.464;2023-03-30T08:40:47;12.30;99.90
37754;DHT22;23596;52.520;13.464;2023-03-30T08:46:32;12.50;99.90
37754;DHT22;23596;52.520;13.464;2023-03-30T08:49:00;12.70;99.90
37754;DHT22;23596;52.520;13.464;2023-03-30T08:51:30;12.80;99.90
37754;DHT22;23596;52.520;13.464;2023-03-30T08:53:59;13.00;99.90
37754;DHT22;23596;52.520;13.464;2023-03-30T08:56:58;13.20;99.90
37754;DHT22;23596;52.520;13.464;2023-03-30T08:59:42;13.40;99.90
37754;DHT22;23596;52.520;13.464;2023-03-30T09:02:16;13.50;99.90
37754;DHT22;23596;52.520;13.464;2023-03-30T09:05:02;13.80;99.90
37754;DHT22;23596;52.520;13.464;2023-03-30T09:07:34;13.90;99.90
37754;DHT22;23596;52.520;13.464;2023-03-30T09:10:07;14.10;99.90
37754;DHT22;23596;52.520;13.464;2023-03-30T09:12:37;14.20;99.90
37754;DHT22;23596;52.520;13.464;2023-03-30T09:15:10;14.30;99.90
37754;DHT22;23596;52.520;13.464;2023-03-30T09:17:42;14.40;99.90
37754;DHT22;23596;52.520;13.464;2023-03-30T09:20:24;14.50;99.90
37754;DHT22;23596;52.520;13.464;2023-03-30T09:22:52;14.50;99.90
37754;DHT22;23596;52.520;13.464;2023-03-30T09:28:00;14.60;99.90
37754;DHT22;23596;52.520;13.464;2023-03-30T09:30:53;14.70;99.90
37754;DHT22;23596;52.520;13.464;2023-03-30T09:33:43;14.70;99.90
37754;DHT22;23596;52.520;13.464;2023-03-30T09:38:37;14.80;99.90
37754;DHT22;23596;52.520;13.464;2023-03-30T09:43:48;14.90;99.90
37754;DHT22;23596;52.520;13.464;2023-03-30T09:46:16;15.00;99.90
37754;DHT22;23596;52.520;13.464;2023-03-30T09:48:43;15.00;99.90
37754;DHT22;23596;52.520;13.464;2023-03-30T09:51:26;15.00;99.90
37754;DHT22;23596;52.520;13.464;2023-03-30T09:54:03;15.00;99.90
37754;DHT22;23596;52.520;13.464;2023-03-30T09:59:19;15.00;99.90
37754;DHT22;23596;52.520;13.464;2023-03-30T10:01:46;15.10;99.90
37754;DHT22;23596;52.520;13.464;2023-03-30T10:04:12;15.10;99.90
37754;DHT22;23596;52.520;13.464;2023-03-30T10:06:48;15.20;99.90
37754;DHT22;23596;52.520;13.464;2023-03-30T10:09:16;15.20;99.90
37754;DHT22;23596;52.520;13.464;2023-03-30T10:11:43;15.20;99.90
37754;DHT22;23596;52.520;13.464;2023-03-30T10:14:15;15.20;99.90
37754;DHT22;23596;52.520;13.464;2023-03-30T10:16:46;15.20;99.90
37754;DHT22;23596;52.520;13.464;2023-03-30T10:19:17;15.20;99.90
37754;DHT22;23596;52.520;13.464;2023-03-30T10:21:44;15.10;99.90
37754;DHT22;23596;52.520;13.464;2023-03-30T10:24:19;15.10;99.90
37754;DHT22;23596;52.520;13.464;2023-03-30T10:26:51;15.00;99.90
37754;DHT22;23596;52.520;13.464;2023-03-30T10:29:20;15.00;99.90
37754;DHT22;23596;52.520;13.464;2023-03-30T10:31:57;15.00;99.90
37754;DHT22;23596;52.520;13.464;2023-03-30T10:34:49;15.00;99.90
37754;DHT22;23596;52.520;13.464;2023-03-30T10:37:19;15.00;99.90
37754;DHT22;23596;52.520;13.464;2023-03-30T10:39:47;15.10;99.90
37754;DHT22;23596;52.520;13.464;2023-03-30T10:42:19;15.10;99.90
37754;DHT22;23596;52.520;13.464;2023-03-30T10:59:10;15.40;99.90
37754;DHT22;23596;52.520;13.464;2023-03-30T11:01:51;15.50;99.90
37754;DHT22;23596;52.520;13.464;2023-03-30T11:06:56;15.60;99.90
37754;DHT22;23596;52.520;13.464;2023-03-30T11:09:27;15.70;99.90
37754;DHT22;23596;52.520;13.464;2023-03-30T11:11:58;15.80;99.90
37754;DHT22;23596;52.520;13.464;2023-03-30T11:14:50;15.90;99.90
37754;DHT22;23596;52.520;13.464;2023-03-30T11:17:31;16.00;99.90
37754;DHT22;23596;52.520;13.464;2023-03-30T11:20:32;15.90;99.90
37754;DHT22;23596;52.520;13.464;2023-03-30T11:25:37;16.00;99.90
37754;DHT22;23596;52.520;13.464;2023-03-30T11:28:14;16.00;99.90
37754;DHT22;23596;52.520;13.464;2023-03-30T11:30:42;16.10;99.90
37754;DHT22;23596;52.520;13.464;2023-03-30T11:33:20;16.10;99.90
37754;DHT22;23596;52.520;13.464;2023-03-30T11:35:54;16.10;99.90
37754;DHT22;23596;52.520;13.464;2023-03-30T11:38:39;16.10;99.90
37754;DHT22;23596;52.520;13.464;2023-03-30T11:41:16;16.20;99.90
37754;DHT22;23596;52.520;13.464;2023-03-30T11:43:44;16.20;99.90
37754;DHT22;23596;52.520;13.464;2023-03-30T11:51:26;16.50;99.90
37754;DHT22;23596;52.520;13.464;2023-03-30T11:56:56;16.90;99.90
37754;DHT22;23596;52.520;13.464;2023-03-30T12:07:29;17.10;99.90
37754;DHT22;23596;52.520;13.464;2023-03-30T12:10:00;17.20;99.90
37754;DHT22;23596;52.520;13.464;2023-03-30T12:12:34;17.20;99.90
37754;DHT22;23596;52.520;13.464;2023-03-30T12:15:29;17.30;99.90
37754;DHT22;23596;52.520;13.464;2023-03-30T12:18:04;17.40;99.90
37754;DHT22;23596;52.520;13.464;2023-03-30T12:23:32;17.80;99.90
37754;DHT22;23596;52.520;13.464;2023-03-30T12:31:19;18.70;99.90
37754;DHT22;23596;52.520;13.464;2023-03-30T12:33:49;18.90;99.90
37754;DHT22;23596;52.520;13.464;2023-03-30T12:38:56;19.30;99.90
37754;DHT22;23596;52.520;13.464;2023-03-30T12:41:28;19.50;99.90
37754;DHT22;23596;52.520;13.464;2023-03-30T12:46:57;19.50;99.90
37754;DHT22;23596;52.520;13.464;2023-03-30T12:52:42;19.30;99.90
37754;DHT22;23596;52.520;13.464;2023-03-30T13:04:14;19.90;99.90
37754;DHT22;23596;52.520;13.464;2023-03-30T13:06:59;20.00;99.90
37754;DHT22;23596;52.520;13.464;2023-03-30T13:24:59;18.90;99.90
37754;DHT22;23596;52.520;13.464;2023-03-30T13:27:34;18.70;99.90
37754;DHT22;23596;52.520;13.464;2023-03-30T13:30:11;18.60;99.90
37754;DHT22;23596;52.520;13.464;2023-03-30T13:43:58;18.20;99.90
37754;DHT22;23596;52.520;13.464;2023-03-30T13:46:58;18.00;99.90
37754;DHT22;23596;52.520;13.464;2023-03-30T13:52:12;17.80;99.90
37754;DHT22;23596;52.520;13.464;2023-03-30T13:54:40;17.70;99.90
37754;DHT22;23596;52.520;13.464;2023-03-30T13:57:13;17.60;99.90
37754;DHT22;23596;52.520;13.464;2023-03-30T13:59:46;17.30;99.90
37754;DHT22;23596;52.520;13.464;2023-03-30T14:02:15;16.30;99.90
37754;DHT22;23596;52.520;13.464;2023-03-30T14:04:42;15.00;99.90
37754;DHT22;23596;52.520;13.464;2023-03-30T14:07:20;14.10;99.90
37754;DHT22;23596;52.520;13.464;2023-03-30T14:10:19;13.50;99.90
37754;DHT22;23596;52.520;13.464;2023-03-30T14:13:10;12.80;99.90
37754;DHT22;23596;52.520;13.464;2023-03-30T14:15:36;12.30;99.90
37754;DHT22;23596;52.520;13.464;2023-03-30T14:18:03;12.00;99.90
37754;DHT22;23596;52.520;13.464;2023-03-30T14:23:23;12.00;99.90
37754;DHT22;23596;52.520;13.464;2023-03-30T14:25:58;11.90;99.90
37754;DHT22;23596;52.520;13.464;2023-03-30T14:28:26;11.90;99.90
37754;DHT22;23596;52.520;13.464;2023-03-30T14:30:58;11.90;99.90
37754;DHT22;23596;52.520;13.464;2023-03-30T14:33:27;11.90;99.90
37754;DHT22;23596;52.520;13.464;2023-03-30T14:35:55;11.90;99.90
37754;DHT22;23596;52.520;13.464;2023-03-30T14:38:24;11.80;99.90
37754;DHT22;23596;52.520;13.464;2023-03-30T14:40:52;11.80;99.90
37754;DHT22;23596;52.520;13.464;2023-03-30T14:43:24;11.70;99.90
37754;DHT22;23596;52.520;13.464;2023-03-30T14:45:53;11.80;99.90
37754;DHT22;23596;52.520;13.464;2023-03-30T14:48:27;11.70;99.90
37754;DHT22;23596;52.520;13.464;2023-03-30T14:50:55;11.70;99.90
37754;DHT22;23596;52.520;13.464;2023-03-30T14:53:30;11.70;99.90
37754;DHT22;23596;52.520;13.464;2023-03-30T14:56:00;11.70;99.90
37754;DHT22;23596;52.520;13.464;2023-03-30T14:58:29;11.70;99.90
37754;DHT22;23596;52.520;13.464;2023-03-30T15:00:58;11.70;99.90
37754;DHT22;23596;52.520;13.464;2023-03-30T15:03:27;11.70;99.90
37754;DHT22;23596;52.520;13.464;2023-03-30T15:05:54;11.60;99.90
37754;DHT22;23596;52.520;13.464;2023-03-30T15:08:30;11.60;99.90
37754;DHT22;23596;52.520;13.464;2023-03-30T15:13:43;11.60;99.90
37754;DHT22;23596;52.520;13.464;2023-03-30T15:16:16;11.60;99.90
37754;DHT22;23596;52.520;13.464;2023-03-30T15:18:43;11.60;99.90
37754;DHT22;23596;52.520;13.464;2023-03-30T15:21:11;11.60;99.90
37754;DHT22;23596;52.520;13.464;2023-03-30T15:23:41;11.60;99.90
37754;DHT22;23596;52.520;13.464;2023-03-30T15:26:08;11.60;99.90
37754;DHT22;23596;52.520;13.464;2023-03-30T15:28:56;11.60;99.90
37754;DHT22;23596;52.520;13.464;2023-03-30T15:31:24;11.60;99.90
37754;DHT22;23596;52.520;13.464;2023-03-30T15:33:57;11.60;99.90
37754;DHT22;23596;52.520;13.464;2023-03-30T15:36:37;11.50;99.90
37754;DHT22;23596;52.520;13.464;2023-03-30T15:41:57;11.60;99.90
37754;DHT22;23596;52.520;13.464;2023-03-30T15:44:25;11.60;99.90
37754;DHT22;23596;52.520;13.464;2023-03-30T15:46:54;11.70;99.90
37754;DHT22;23596;52.520;13.464;2023-03-30T15:49:37;11.70;99.90
37754;DHT22;23596;52.520;13.464;2023-03-30T15:52:10;11.70;99.90
37754;DHT22;23596;52.520;13.464;2023-03-30T15:54:51;11.80;99.90
37754;DHT22;23596;52.520;13.464;2023-03-30T15:57:26;11.80;99.90
37754;DHT22;23596;52.520;13.464;2023-03-30T15:59:57;11.80;99.90
37754;DHT22;23596;52.520;13.464;2023-03-30T16:02:38;11.80;99.90
37754;DHT22;23596;52.520;13.464;2023-03-30T16:05:06;11.70;99.90
37754;DHT22;23596;52.520;13.464;2023-03-30T16:07:33;11.70;99.90
37754;DHT22;23596;52.520;13.464;2023-03-30T16:10:00;11.70;99.90
37754;DHT22;23596;52.520;13.464;2023-03-30T16:12:27;11.70;99.90
37754;DHT22;23596;52.520;13.464;2023-03-30T16:14:54;11.80;99.90
37754;DHT22;23596;52.520;13.464;2023-03-30T16:17:20;11.80;99.90
37754;DHT22;23596;52.520;13.464;2023-03-30T16:19:46;11.90;99.90
37754;DHT22;23596;52.520;13.464;2023-03-30T16:22:13;11.80;99.90
37754;DHT22;23596;52.520;13.464;2023-03-30T16:24:39;11.90;99.90
37754;DHT22;23596;52.520;13.464;2023-03-30T16:27:08;11.90;99.90
37754;DHT22;23596;52.520;13.464;2023-03-30T16:29:34;11.90;99.90
37754;DHT22;23596;52.520;13.464;2023-03-30T16:32:00;11.90;99.90
37754;DHT22;23596;52.520;13.464;2023-03-30T16:34:26;12.00;99.90
37754;DHT22;23596;52.520;13.464;2023-03-30T16:36:52;11.90;99.90
37754;DHT22;23596;52.520;13.464;2023-03-30T16:39:20;12.00;99.90
37754;DHT22;23596;52.520;13.464;2023-03-30T16:41:47;12.00;99.90
37754;DHT22;23596;52.520;13.464;2023-03-30T16:44:15;12.00;99.90
37754;DHT22;23596;52.520;13.464;2023-03-30T16:46:40;12.00;99.90
37754;DHT22;23596;52.520;13.464;2023-03-30T16:49:14;12.00;99.90
37754;DHT22;23596;52.520;13.464;2023-03-30T16:51:41;11.90;99.90
37754;DHT22;23596;52.520;13.464;2023-03-30T16:54:06;12.00;99.90
37754;DHT22;23596;52.520;13.464;2023-03-30T16:56:32;12.00;99.90
37754;DHT22;23596;52.520;13.464;2023-03-30T16:58:58;12.10;99.90
37754;DHT22;23596;52.520;13.464;2023-03-30T17:01:27;12.20;99.90
37754;DHT22;23596;52.520;13.464;2023-03-30T17:03:54;12.20;99.90
37754;DHT22;23596;52.520;13.464;2023-03-30T17:06:20;12.20;99.90
37754;DHT22;23596;52.520;13.464;2023-03-30T17:08:47;12.30;99.90
37754;DHT22;23596;52.520;13.464;2023-03-30T17:11:13;12.30;99.90
37754;DHT22;23596;52.520;13.464;2023-03-30T17:13:40;12.40;99.90
37754;DHT22;23596;52.520;13.464;2023-03-30T17:16:07;12.30;99.90
37754;DHT22;23596;52.520;13.464;2023-03-30T17:18:32;12.30;99.90
37754;DHT22;23596;52.520;13.464;2023-03-30T17:20:59;12.30;99.90
37754;DHT22;23596;52.520;13.464;2023-03-30T17:23:27;12.30;99.90
37754;DHT22;23596;52.520;13.464;2023-03-30T17:25:54;12.20;99.90
37754;DHT22;23596;52.520;13.464;2023-03-30T17:28:25;12.20;99.90
37754;DHT22;23596;52.520;13.464;2023-03-30T17:30:53;12.20;99.90
37754;DHT22;23596;52.520;13.464;2023-03-30T17:33:20;12.20;99.90
37754;DHT22;23596;52.520;13.464;2023-03-30T17:35:49;12.10;99.90
37754;DHT22;23596;52.520;13.464;2023-03-30T17:38:15;12.10;99.90
37754;DHT22;23596;52.520;13.464;2023-03-30T17:40:42;12.10;99.90
37754;DHT22;23596;52.520;13.464;2023-03-30T17:43:09;12.10;99.90
37754;DHT22;23596;52.520;13.464;2023-03-30T17:45:36;12.10;99.90
37754;DHT22;23596;52.520;13.464;2023-03-30T17:48:03;12.00;99.90
37754;DHT22;23596;52.520;13.464;2023-03-30T17:50:40;12.00;99.90
37754;DHT22;23596;52.520;13.464;2023-03-30T17:53:11;12.00;99.90
37754;DHT22;23596;52.520;13.464;2023-03-30T17:55:38;12.00;99.90
37754;DHT22;23596;52.520;13.464;2023-03-30T17:58:34;12.00;99.90
37754;DHT22;23596;52.520;13.464;2023-03-30T18:01:04;12.00;99.90
37754;DHT22;23596;52.520;13.464;2023-03-30T18:03:31;12.00;99.90
37754;DHT22;23596;52.520;13.464;2023-03-30T18:05:58;11.90;99.90
37754;DHT22;23596;52.520;13.464;2023-03-30T18:08:25;11.90;99.90
37754;DHT22;23596;52.520;13.464;2023-03-30T18:10:52;11.90;99.90
37754;DHT22;23596;52.520;13.464;2023-03-30T18:13:19;11.90;99.90
37754;DHT22;23596;52.520;13.464;2023-03-30T18:15:46;11.90;99.90
37754;DHT22;23596;52.520;13.464;2023-03-30T18:18:15;11.90;99.90
37754;DHT22;23596;52.520;13.464;2023-03-30T18:20:50;11.80;99.90